createdAt,value
2022-12-06T00:02:20.262Z,6.47
2022-12-06T00:04:47.972Z,6.73
2022-12-06T00:07:15.472Z,6.37
2022-12-06T00:09:43.033Z,6.40
2022-12-06T00:12:10.531Z,6.60
2022-12-06T00:14:38.165Z,7.00
2022-12-06T00:17:05.648Z,6.50
2022-12-06T00:19:33.302Z,7.30
2022-12-06T00:22:00.808Z,6.90
2022-12-06T00:24:28.318Z,7.13
2022-12-06T00:26:55.827Z,6.60
2022-12-06T00:29:24.461Z,6.87
2022-12-06T00:31:52.284Z,6.90
2022-12-06T00:34:19.967Z,6.33
2022-12-06T00:36:47.987Z,6.57
2022-12-06T00:39:17.016Z,6.97
2022-12-06T00:41:44.908Z,6.40
2022-12-06T00:44:12.896Z,6.33
2022-12-06T00:46:40.498Z,6.37
2022-12-06T00:49:08.738Z,5.47
2022-12-06T00:51:37.180Z,6.63
2022-12-06T00:54:04.787Z,6.43
2022-12-06T00:56:33.796Z,6.63
2022-12-06T00:59:01.270Z,6.20
2022-12-06T01:01:29.954Z,6.40
2022-12-06T01:03:59.108Z,6.27
2022-12-06T01:06:28.951Z,6.47
2022-12-06T01:08:57.023Z,5.87
2022-12-06T01:11:25.018Z,6.30
2022-12-06T01:13:53.133Z,5.93
2022-12-06T01:16:22.442Z,6.33
2022-12-06T01:18:52.680Z,6.10
2022-12-06T01:21:20.722Z,6.10
2022-12-06T01:23:49.053Z,5.67
2022-12-06T01:26:21.462Z,6.00
2022-12-06T01:28:48.990Z,5.57
2022-12-06T01:31:16.894Z,5.83
2022-12-06T01:33:45.017Z,5.50
2022-12-06T01:36:19.909Z,5.90
2022-12-06T01:38:54.495Z,5.20
2022-12-06T01:41:22.565Z,6.10
2022-12-06T01:43:50.546Z,5.93
2022-12-06T01:46:18.070Z,5.37
2022-12-06T01:48:45.766Z,5.23
2022-12-06T01:51:14.187Z,5.37
2022-12-06T01:53:43.607Z,5.77
2022-12-06T01:56:11.298Z,5.43
2022-12-06T01:58:41.527Z,5.70
2022-12-06T02:01:10.036Z,5.90
2022-12-06T02:03:38.287Z,6.17
2022-12-06T02:06:06.494Z,6.17
2022-12-06T02:08:34.188Z,6.37
2022-12-06T02:11:02.864Z,6.43
2022-12-06T02:13:31.624Z,6.00
2022-12-06T02:15:59.162Z,6.47
2022-12-06T02:18:44.785Z,6.23
2022-12-06T02:21:18.742Z,6.10
2022-12-06T02:24:02.135Z,6.67
2022-12-06T02:26:36.470Z,6.70
2022-12-06T02:29:22.022Z,6.63
2022-12-06T02:31:58.855Z,6.50
2022-12-06T02:34:45.816Z,6.37
2022-12-06T02:37:15.873Z,6.10
2022-12-06T02:39:43.489Z,6.03
2022-12-06T02:42:15.719Z,6.67
2022-12-06T02:44:46.291Z,5.87
2022-12-06T02:47:14.277Z,6.10
2022-12-06T02:49:49.706Z,5.97
2022-12-06T02:52:19.147Z,6.60
2022-12-06T02:54:47.845Z,6.27
2022-12-06T02:57:15.345Z,6.40
2022-12-06T02:59:51.760Z,6.27
2022-12-06T03:02:19.420Z,6.63
2022-12-06T03:04:49.717Z,6.97
2022-12-06T03:07:20.065Z,6.53
2022-12-06T03:09:58.769Z,6.83
2022-12-06T03:12:32.604Z,6.47
2022-12-06T03:15:20.073Z,6.63
2022-12-06T03:17:53.637Z,6.17
2022-12-06T03:20:21.093Z,6.30
2022-12-06T03:22:51.946Z,6.80
2022-12-06T03:25:19.483Z,6.77
2022-12-06T03:27:48.285Z,6.93
2022-12-06T03:30:16.117Z,7.07
2022-12-06T03:32:46.018Z,7.30
2022-12-06T03:35:15.530Z,7.00
2022-12-06T03:37:44.580Z,7.03
2022-12-06T03:40:14.888Z,7.27
2022-12-06T03:42:42.436Z,7.30
2022-12-06T03:45:11.583Z,7.00
2022-12-06T03:47:44.066Z,6.93
2022-12-06T03:50:14.742Z,6.90
2022-12-06T03:52:42.270Z,7.20
2022-12-06T03:55:09.859Z,7.20
2022-12-06T03:57:37.490Z,6.30
2022-12-06T04:00:09.675Z,7.17
2022-12-06T04:02:39.029Z,6.50
2022-12-06T04:05:06.622Z,6.50
2022-12-06T04:07:34.154Z,7.03
2022-12-06T04:10:04.825Z,7.07
2022-12-06T04:12:51.995Z,6.63
2022-12-06T04:15:20.854Z,6.27
2022-12-06T04:18:06.784Z,6.87
2022-12-06T04:20:54.474Z,6.40
2022-12-06T04:23:22.300Z,6.50
2022-12-06T04:25:49.853Z,6.43
2022-12-06T04:38:57.912Z,6.23
2022-12-06T04:41:43.928Z,6.60
2022-12-06T04:44:11.471Z,6.50
2022-12-06T04:46:38.971Z,6.80
2022-12-06T04:49:06.532Z,6.90
2022-12-06T04:51:34.396Z,6.57
2022-12-06T04:54:01.935Z,6.40
2022-12-06T04:56:29.348Z,6.60
2022-12-06T04:58:57.016Z,6.40
2022-12-06T05:01:24.500Z,6.73
2022-12-06T05:03:52.089Z,6.87
2022-12-06T05:06:19.576Z,6.67
2022-12-06T05:08:47.045Z,6.60
2022-12-06T05:11:14.552Z,6.50
2022-12-06T05:13:42.160Z,7.13
2022-12-06T05:16:09.696Z,6.47
2022-12-06T05:18:37.375Z,6.33
2022-12-06T05:21:08.355Z,5.90
2022-12-06T05:23:36.188Z,6.50
2022-12-06T05:26:07.810Z,7.00
2022-12-06T05:28:35.702Z,6.20
2022-12-06T05:31:03.322Z,6.83
2022-12-06T05:33:31.020Z,6.73
2022-12-06T05:35:58.542Z,6.50
2022-12-06T05:38:26.341Z,6.30
2022-12-06T05:40:53.855Z,7.10
2022-12-06T05:43:21.344Z,7.00
2022-12-06T05:45:53.010Z,6.97
2022-12-06T05:48:20.536Z,7.23
2022-12-06T05:50:48.641Z,7.50
2022-12-06T05:53:16.617Z,6.30
2022-12-06T05:55:44.290Z,7.03
2022-12-06T05:58:11.792Z,6.50
2022-12-06T06:00:39.604Z,7.27
2022-12-06T06:03:07.269Z,6.30
2022-12-06T06:05:34.928Z,6.80
2022-12-06T06:08:02.593Z,6.90
2022-12-06T06:10:30.129Z,6.07
2022-12-06T06:12:57.588Z,6.47
2022-12-06T06:15:25.116Z,6.43
2022-12-06T06:17:52.564Z,6.97
2022-12-06T06:20:20.067Z,7.10
2022-12-06T06:22:47.524Z,6.30
2022-12-06T06:25:15.170Z,6.80
2022-12-06T06:27:42.744Z,6.33
2022-12-06T06:30:11.807Z,6.30
2022-12-06T06:32:39.549Z,6.70
2022-12-06T06:35:07.700Z,6.63
2022-12-06T06:37:35.311Z,6.27
2022-12-06T06:40:03.396Z,6.80
2022-12-06T06:42:30.997Z,5.87
2022-12-06T06:44:58.547Z,7.00
2022-12-06T06:47:26.140Z,5.73
2022-12-06T06:49:53.720Z,6.50
2022-12-06T06:52:21.384Z,6.47
2022-12-06T06:54:48.849Z,6.77
2022-12-06T06:57:18.035Z,6.37
2022-12-06T06:59:46.028Z,6.60
2022-12-06T07:02:17.545Z,6.60
2022-12-06T07:04:45.113Z,6.67
2022-12-06T07:07:19.295Z,6.87
2022-12-06T07:09:48.698Z,7.80
2022-12-06T07:12:16.490Z,7.67
2022-12-06T07:14:43.962Z,7.07
2022-12-06T07:17:11.509Z,6.17
2022-12-06T07:19:39.125Z,6.90
2022-12-06T07:22:06.734Z,6.90
2022-12-06T07:24:39.878Z,6.90
2022-12-06T07:27:09.205Z,6.87
2022-12-06T07:29:36.799Z,5.83
2022-12-06T07:32:04.335Z,6.63
2022-12-06T07:34:32.324Z,6.60
2022-12-06T07:36:59.896Z,6.60
2022-12-06T07:39:27.406Z,5.83
2022-12-06T07:42:13.356Z,6.80
2022-12-06T07:45:08.930Z,6.87
2022-12-06T07:47:40.091Z,6.47
2022-12-06T07:50:12.886Z,6.77
2022-12-06T07:52:43.969Z,6.73
2022-12-06T07:55:12.038Z,6.23
2022-12-06T07:57:43.352Z,7.20
2022-12-06T08:00:12.439Z,6.53
2022-12-06T08:02:40.259Z,6.67
2022-12-06T08:05:07.914Z,6.23
2022-12-06T08:07:35.547Z,5.73
2022-12-06T08:10:03.528Z,6.00
2022-12-06T08:12:32.273Z,6.47
2022-12-06T08:15:00.337Z,6.00
2022-12-06T08:17:28.596Z,6.20
2022-12-06T08:19:56.100Z,7.10
2022-12-06T08:22:23.595Z,6.67
2022-12-06T08:24:51.266Z,5.83
2022-12-06T08:27:18.733Z,6.63
2022-12-06T08:29:46.304Z,6.50
2022-12-06T08:32:13.793Z,6.40
2022-12-06T08:34:42.957Z,6.27
2022-12-06T08:37:10.759Z,6.33
2022-12-06T08:39:38.418Z,5.40
2022-12-06T08:42:07.793Z,6.33
2022-12-06T08:44:36.514Z,6.40
2022-12-06T08:47:04.658Z,6.63
2022-12-06T08:49:32.160Z,7.23
2022-12-06T08:52:00.213Z,6.30
2022-12-06T08:54:27.974Z,6.60
2022-12-06T08:56:55.824Z,6.57
2022-12-06T08:59:23.427Z,6.47
2022-12-06T09:01:50.933Z,6.40
2022-12-06T09:04:18.994Z,6.20
2022-12-06T09:06:47.009Z,6.00
2022-12-06T09:09:15.290Z,6.83
2022-12-06T09:11:43.412Z,6.47
2022-12-06T09:14:17.881Z,6.67
2022-12-06T09:16:49.611Z,6.57
2022-12-06T09:19:17.074Z,6.47
2022-12-06T09:21:46.378Z,6.60
2022-12-06T09:24:15.332Z,6.70
2022-12-06T09:26:43.245Z,6.00
2022-12-06T09:29:10.892Z,7.30
2022-12-06T09:31:40.415Z,5.97
2022-12-06T09:34:11.934Z,6.30
2022-12-06T09:36:46.121Z,6.43
2022-12-06T09:39:16.281Z,6.63
2022-12-06T09:42:02.382Z,5.87
2022-12-06T09:44:48.755Z,7.03
2022-12-06T09:47:19.293Z,6.53
2022-12-06T09:50:01.318Z,6.97
2022-12-06T09:52:50.732Z,4.60
2022-12-06T09:55:23.986Z,6.07
2022-12-06T09:58:04.357Z,6.53
2022-12-06T10:00:35.051Z,6.60
2022-12-06T10:03:05.623Z,6.63
2022-12-06T10:05:36.216Z,6.43
2022-12-06T10:08:03.943Z,6.90
2022-12-06T10:10:31.451Z,6.67
2022-12-06T10:13:05.130Z,5.90
2022-12-06T10:15:32.585Z,6.47
2022-12-06T10:18:01.126Z,6.40
2022-12-06T10:20:47.635Z,6.63
2022-12-06T10:23:33.684Z,6.43
2022-12-06T10:26:01.145Z,6.13
2022-12-06T10:28:57.656Z,6.47
2022-12-06T10:31:27.984Z,6.07
2022-12-06T10:33:56.200Z,6.67
2022-12-06T10:36:33.939Z,5.47
2022-12-06T10:39:06.163Z,5.73
2022-12-06T10:41:42.823Z,5.70
2022-12-06T10:44:13.012Z,4.57
2022-12-06T10:47:04.821Z,6.10
2022-12-06T10:49:51.195Z,5.60
2022-12-06T10:52:18.630Z,6.23
2022-12-06T10:54:57.080Z,5.57
2022-12-06T10:57:31.019Z,5.40
2022-12-06T11:00:03.764Z,4.70
2022-12-06T11:02:31.844Z,5.17
2022-12-06T11:05:01.532Z,5.37
2022-12-06T11:07:34.949Z,5.20
2022-12-06T11:10:03.236Z,4.40
2022-12-06T11:12:35.127Z,5.03
2022-12-06T11:15:22.775Z,5.07
2022-12-06T11:17:54.909Z,4.93
2022-12-06T11:20:29.773Z,4.93
2022-12-06T11:23:16.114Z,4.90
2022-12-06T11:25:58.577Z,4.90
2022-12-06T11:28:29.170Z,5.10
2022-12-06T11:30:57.769Z,3.87
2022-12-06T11:33:32.008Z,4.10
2022-12-06T11:36:03.432Z,4.77
2022-12-06T11:38:31.227Z,5.90
2022-12-06T11:40:59.830Z,27.23
2022-12-06T11:43:30.208Z,8.47
2022-12-06T11:45:57.890Z,6.00
2022-12-06T11:48:28.302Z,5.20
2022-12-06T11:50:55.758Z,4.67
2022-12-06T11:53:29.168Z,4.97
2022-12-06T11:55:58.860Z,5.17
2022-12-06T11:58:31.626Z,5.73
2022-12-06T12:01:02.138Z,5.30
2022-12-06T12:03:34.218Z,5.13
2022-12-06T12:06:31.239Z,4.90
2022-12-06T12:09:00.579Z,3.10
2022-12-06T12:11:32.706Z,4.43
2022-12-06T12:14:05.209Z,4.50
2022-12-06T12:16:38.210Z,4.63
2022-12-06T12:19:07.644Z,5.00
2022-12-06T12:21:42.270Z,4.13
2022-12-06T12:24:28.178Z,4.83
2022-12-06T12:26:55.602Z,4.00
2022-12-06T12:29:23.033Z,3.80
2022-12-06T12:31:53.516Z,4.10
2022-12-06T12:34:23.042Z,4.50
2022-12-06T12:36:52.152Z,3.80
2022-12-06T12:39:27.469Z,2.97
2022-12-06T12:41:54.956Z,4.10
2022-12-06T12:44:42.894Z,3.60
2022-12-06T12:47:20.746Z,3.80
2022-12-06T12:50:06.831Z,3.20
2022-12-06T12:52:38.161Z,2.70
2022-12-06T12:55:24.436Z,3.43
2022-12-06T12:57:56.219Z,3.33
2022-12-06T13:00:27.442Z,3.10
2022-12-06T13:03:02.428Z,2.60
2022-12-06T13:05:36.772Z,2.37
2022-12-06T13:08:17.980Z,2.60
2022-12-06T13:10:46.489Z,2.20
2022-12-06T13:13:13.934Z,2.33
2022-12-06T13:15:47.461Z,2.27
2022-12-06T13:18:20.805Z,2.53
2022-12-06T13:20:49.144Z,2.23
2022-12-06T13:23:21.292Z,2.30
2022-12-06T13:25:51.655Z,2.30
2022-12-06T13:28:21.617Z,2.10
2022-12-06T13:31:00.632Z,2.20
2022-12-06T13:33:32.171Z,2.10
2022-12-06T13:36:04.276Z,2.10
2022-12-06T13:38:33.459Z,1.80
2022-12-06T13:41:01.852Z,2.20
2022-12-06T13:43:29.381Z,1.97
2022-12-06T13:46:15.146Z,2.10
2022-12-06T13:48:51.766Z,2.10
2022-12-06T13:51:31.719Z,1.80
2022-12-06T13:54:07.726Z,1.90
2022-12-06T13:56:35.281Z,2.20
2022-12-06T13:59:02.672Z,1.90
2022-12-06T14:01:41.415Z,1.60
2022-12-06T14:06:55.995Z,2.07
2022-12-06T14:09:24.636Z,1.77
2022-12-06T14:11:53.307Z,1.80
2022-12-06T14:14:24.647Z,1.70
2022-12-06T14:16:54.686Z,1.77
2022-12-06T14:19:30.424Z,1.73
2022-12-06T14:22:14.505Z,1.67
2022-12-06T14:24:43.099Z,1.80
2022-12-06T14:27:10.544Z,1.87
2022-12-06T14:29:38.070Z,1.20
2022-12-06T14:32:05.668Z,1.80
2022-12-06T14:34:34.079Z,1.70
2022-12-06T14:37:02.789Z,1.80
2022-12-06T14:39:31.480Z,1.60
2022-12-06T14:42:19.121Z,1.50
2022-12-06T14:45:00.370Z,1.60
2022-12-06T14:47:29.744Z,1.73
2022-12-06T14:50:17.497Z,1.70
2022-12-06T14:53:03.964Z,1.43
2022-12-06T14:55:33.239Z,1.80
2022-12-06T14:58:02.108Z,1.60
2022-12-06T15:00:48.293Z,1.60
2022-12-06T15:03:15.891Z,1.50
2022-12-06T15:05:45.132Z,1.50
2022-12-06T15:08:27.719Z,1.67
2022-12-06T15:10:58.244Z,1.47
2022-12-06T15:13:25.757Z,1.47
2022-12-06T15:16:08.645Z,1.30
2022-12-06T15:18:37.769Z,1.50
2022-12-06T15:21:12.444Z,1.30
2022-12-06T15:23:55.877Z,1.60
2022-12-06T15:26:23.991Z,1.47
2022-12-06T15:28:51.803Z,1.60
2022-12-06T15:31:19.400Z,1.20
2022-12-06T15:33:47.309Z,1.37
2022-12-06T15:36:19.559Z,1.50
2022-12-06T15:38:47.160Z,1.40
2022-12-06T15:41:18.633Z,1.17
2022-12-06T15:43:46.462Z,3.10
2022-12-06T15:46:18.604Z,4.83
2022-12-06T15:48:46.427Z,6.00
2022-12-06T15:51:20.403Z,7.80
2022-12-06T15:53:49.586Z,6.60
2022-12-06T15:56:21.863Z,2.30
2022-12-06T15:58:50.039Z,1.80
2022-12-06T16:01:19.794Z,1.70
2022-12-06T16:03:47.570Z,1.53
2022-12-06T16:06:16.525Z,1.70
2022-12-06T16:08:44.545Z,1.90
2022-12-06T16:11:16.509Z,1.50
2022-12-06T16:13:44.226Z,1.40
2022-12-06T16:16:12.169Z,1.67
2022-12-06T16:18:39.703Z,1.43
2022-12-06T16:21:07.243Z,1.50
2022-12-06T16:26:43.880Z,1.67
2022-12-06T16:29:29.173Z,1.50
2022-12-06T16:31:56.679Z,1.50
2022-12-06T16:34:25.268Z,1.60
2022-12-06T16:37:00.789Z,1.57
2022-12-06T16:39:29.375Z,1.40
2022-12-06T16:41:56.912Z,1.60
2022-12-06T16:44:24.725Z,1.53
2022-12-06T16:46:52.399Z,1.73
2022-12-06T16:52:15.325Z,1.70
2022-12-06T16:54:43.008Z,1.80
2022-12-06T16:57:11.914Z,1.90
2022-12-06T16:59:40.528Z,1.63
2022-12-06T17:02:20.185Z,1.90
2022-12-06T17:04:47.677Z,1.80
2022-12-06T17:07:15.455Z,2.00
2022-12-06T17:09:42.898Z,1.80
2022-12-06T17:12:13.277Z,2.00
2022-12-06T17:14:40.782Z,2.00
2022-12-06T17:17:13.189Z,1.80
2022-12-06T17:19:40.759Z,1.90
2022-12-06T17:22:09.967Z,3.60
2022-12-06T17:24:37.473Z,2.13
2022-12-06T17:27:04.973Z,1.97
2022-12-06T17:29:32.469Z,1.63
2022-12-06T17:31:59.956Z,2.10
2022-12-06T17:34:27.507Z,2.10
2022-12-06T17:36:56.145Z,1.80
2022-12-06T17:39:23.804Z,1.80
2022-12-06T17:42:10.105Z,1.90
2022-12-06T17:44:39.900Z,2.10
2022-12-06T17:47:07.695Z,1.90
2022-12-06T17:49:36.260Z,2.07
2022-12-06T17:52:03.883Z,2.00
2022-12-06T17:54:31.369Z,2.20
2022-12-06T17:56:58.885Z,2.20
2022-12-06T17:59:27.782Z,2.23
2022-12-06T18:02:15.263Z,2.90
2022-12-06T18:04:44.095Z,4.73
2022-12-06T18:07:12.292Z,10.03
2022-12-06T18:09:39.684Z,7.73
2022-12-06T18:12:08.896Z,6.60
2022-12-06T18:14:36.398Z,4.63
2022-12-06T18:17:04.078Z,4.57
2022-12-06T18:19:31.612Z,3.50
2022-12-06T18:21:59.133Z,3.00
2022-12-06T18:24:33.407Z,3.97
2022-12-06T18:27:02.693Z,4.23
2022-12-06T18:29:30.124Z,2.97
2022-12-06T18:31:57.862Z,3.20
2022-12-06T18:34:25.845Z,3.00
2022-12-06T18:36:53.321Z,2.70
2022-12-06T18:39:24.643Z,3.30
2022-12-06T18:41:53.265Z,3.43
2022-12-06T18:44:20.808Z,3.90
2022-12-06T18:46:48.384Z,4.20
2022-12-06T18:49:16.305Z,2.73
2022-12-06T18:51:43.903Z,2.57
2022-12-06T18:54:14.051Z,2.83
2022-12-06T18:56:42.247Z,2.90
2022-12-06T18:59:11.093Z,2.93
2022-12-06T19:01:39.273Z,2.83
2022-12-06T19:04:07.743Z,2.80
2022-12-06T19:06:36.188Z,2.30
2022-12-06T19:09:06.099Z,2.60
2022-12-06T19:11:36.363Z,2.60
2022-12-06T19:14:03.833Z,2.73
2022-12-06T19:16:35.930Z,2.40
2022-12-06T19:19:04.742Z,2.37
2022-12-06T19:21:33.125Z,2.73
2022-12-06T19:24:00.952Z,2.80
2022-12-06T19:26:29.365Z,2.50
2022-12-06T19:28:56.940Z,2.40
2022-12-06T19:31:24.747Z,2.67
2022-12-06T19:33:52.857Z,2.40
2022-12-06T19:36:22.611Z,2.53
2022-12-06T19:38:50.422Z,2.70
2022-12-06T19:41:18.847Z,2.23
2022-12-06T19:44:05.823Z,2.70
2022-12-06T19:46:33.707Z,2.27
2022-12-06T19:49:02.836Z,2.43
2022-12-06T19:51:30.457Z,2.50
2022-12-06T19:53:58.468Z,2.90
2022-12-06T19:56:26.385Z,2.70
2022-12-06T19:58:55.991Z,2.60
2022-12-06T20:01:27.177Z,2.80
2022-12-06T20:03:55.044Z,3.27
2022-12-06T20:06:23.848Z,3.03
2022-12-06T20:08:52.007Z,2.97
2022-12-06T20:11:38.888Z,3.13
2022-12-06T20:14:07.644Z,2.67
2022-12-06T20:16:35.488Z,2.67
2022-12-06T20:19:02.990Z,2.73
2022-12-06T20:21:30.462Z,2.90
2022-12-06T20:24:01.542Z,2.73
2022-12-06T20:26:29.911Z,2.57
2022-12-06T20:28:57.373Z,2.77
2022-12-06T20:31:25.971Z,2.90
2022-12-06T20:34:00.773Z,2.53
2022-12-06T20:36:28.726Z,2.60
2022-12-06T20:38:56.536Z,2.83
2022-12-06T20:41:25.503Z,2.87
2022-12-06T20:43:53.348Z,2.67
2022-12-06T20:46:23.087Z,2.63
2022-12-06T20:48:50.579Z,2.90
2022-12-06T20:51:23.261Z,3.07
2022-12-06T20:53:51.367Z,2.70
2022-12-06T20:56:20.293Z,2.70
2022-12-06T20:58:52.321Z,2.60
2022-12-06T21:01:21.250Z,2.77
2022-12-06T21:03:49.388Z,2.80
2022-12-06T21:06:17.638Z,2.63
2022-12-06T21:08:45.640Z,2.90
2022-12-06T21:11:22.519Z,2.57
2022-12-06T21:13:51.348Z,2.50
2022-12-06T21:16:20.131Z,2.97
2022-12-06T21:18:49.413Z,2.90
2022-12-06T21:21:25.280Z,3.00
2022-12-06T21:23:52.848Z,2.90
2022-12-06T21:26:20.294Z,3.13
2022-12-06T21:28:47.871Z,2.90
2022-12-06T21:31:15.453Z,2.77
2022-12-06T21:33:43.087Z,2.47
2022-12-06T21:36:11.311Z,2.87
2022-12-06T21:38:39.540Z,2.93
2022-12-06T21:41:08.272Z,2.83
2022-12-06T21:43:36.555Z,3.07
2022-12-06T21:46:07.958Z,3.07
2022-12-06T21:48:35.707Z,3.00
2022-12-06T21:51:04.750Z,3.13
2022-12-06T21:53:32.233Z,2.80
2022-12-06T21:55:59.903Z,3.10
2022-12-06T21:58:27.424Z,3.20
2022-12-06T22:00:54.844Z,3.03
2022-12-06T22:03:23.462Z,2.70
2022-12-06T22:05:51.045Z,3.00
2022-12-06T22:08:18.571Z,2.87
2022-12-06T22:10:46.212Z,2.80
2022-12-06T22:13:13.666Z,2.87
2022-12-06T22:15:41.286Z,2.90
2022-12-06T22:18:08.778Z,3.23
2022-12-06T22:20:36.359Z,2.47
2022-12-06T22:23:03.857Z,3.00
2022-12-06T22:25:31.296Z,2.97
2022-12-06T22:27:58.790Z,2.87
2022-12-06T22:30:26.236Z,3.27
2022-12-06T22:32:53.716Z,2.90
2022-12-06T22:35:21.146Z,2.63
2022-12-06T22:37:48.647Z,2.93
2022-12-06T22:40:16.080Z,2.90
2022-12-06T22:42:43.530Z,2.70
2022-12-06T22:45:11.200Z,3.23
2022-12-06T22:47:38.686Z,2.77
2022-12-06T22:50:06.657Z,2.97
2022-12-06T22:52:34.102Z,2.93
2022-12-06T22:55:01.586Z,3.23
2022-12-06T22:57:29.033Z,3.07
2022-12-06T22:59:56.476Z,3.00
2022-12-06T23:02:23.974Z,3.13
2022-12-06T23:04:51.478Z,3.33
2022-12-06T23:07:18.883Z,3.23
2022-12-06T23:09:46.341Z,2.90
2022-12-06T23:12:13.812Z,3.27
2022-12-06T23:14:41.268Z,3.30
2022-12-06T23:17:08.779Z,3.23
2022-12-06T23:19:36.274Z,3.10
2022-12-06T23:22:03.766Z,3.20
2022-12-06T23:24:31.217Z,2.50
2022-12-06T23:26:58.706Z,3.07
2022-12-06T23:29:26.211Z,3.13
2022-12-06T23:31:53.742Z,3.00
2022-12-06T23:34:23.291Z,2.60
2022-12-06T23:36:50.742Z,2.90
2022-12-06T23:39:18.296Z,2.20
2022-12-06T23:41:46.293Z,2.50
2022-12-06T23:44:14.455Z,2.67
2022-12-06T23:46:42.689Z,2.77
2022-12-06T23:49:15.496Z,2.70
2022-12-06T23:51:43.051Z,2.77
2022-12-06T23:54:11.727Z,2.50
2022-12-06T23:56:40.204Z,2.33
2022-12-06T23:59:08.612Z,2.50
